sensor_id;sensor_type;location;lat;lon;timestamp;temperature;humidity
6270;DHT22;3168;51.684;6.954;2023-02-13T00:01:58;8.40;1.00
6270;DHT22;3168;51.684;6.954;2023-02-13T00:04:24;8.30;1.00
6270;DHT22;3168;51.684;6.954;2023-02-13T00:06:50;8.30;1.00
6270;DHT22;3168;51.684;6.954;2023-02-13T00:09:16;8.30;1.00
6270;DHT22;3168;51.684;6.954;2023-02-13T00:11:42;8.20;1.00
6270;DHT22;3168;51.684;6.954;2023-02-13T00:14:07;8.20;1.00
6270;DHT22;3168;51.684;6.954;2023-02-13T00:16:33;8.20;1.00
6270;DHT22;3168;51.684;6.954;2023-02-13T00:18:59;8.20;1.00
6270;DHT22;3168;51.684;6.954;2023-02-13T00:21:25;8.20;1.00
6270;DHT22;3168;51.684;6.954;2023-02-13T00:23:51;8.20;1.00
6270;DHT22;3168;51.684;6.954;2023-02-13T00:26:16;8.20;1.00
6270;DHT22;3168;51.684;6.954;2023-02-13T00:28:42;8.20;1.00
6270;DHT22;3168;51.684;6.954;2023-02-13T00:31:09;8.20;1.00
6270;DHT22;3168;51.684;6.954;2023-02-13T00:33:34;8.30;1.00
6270;DHT22;3168;51.684;6.954;2023-02-13T00:36:04;8.30;1.00
6270;DHT22;3168;51.684;6.954;2023-02-13T00:38:29;8.30;1.00
6270;DHT22;3168;51.684;6.954;2023-02-13T00:40:54;8.20;1.00
6270;DHT22;3168;51.684;6.954;2023-02-13T00:43:20;8.20;1.00
6270;DHT22;3168;51.684;6.954;2023-02-13T00:45:46;8.20;1.00
6270;DHT22;3168;51.684;6.954;2023-02-13T00:48:12;8.20;1.00
6270;DHT22;3168;51.684;6.954;2023-02-13T00:50:38;8.20;1.00
6270;DHT22;3168;51.684;6.954;2023-02-13T00:53:03;8.20;1.00
6270;DHT22;3168;51.684;6.954;2023-02-13T00:55:29;8.20;1.00
6270;DHT22;3168;51.684;6.954;2023-02-13T00:57:55;8.20;1.00
6270;DHT22;3168;51.684;6.954;2023-02-13T01:00:21;8.30;1.00
6270;DHT22;3168;51.684;6.954;2023-02-13T01:02:47;8.30;1.00
6270;DHT22;3168;51.684;6.954;2023-02-13T01:05:13;8.30;1.00
6270;DHT22;3168;51.684;6.954;2023-02-13T01:07:39;8.20;1.00
6270;DHT22;3168;51.684;6.954;2023-02-13T01:10:05;8.10;1.00
6270;DHT22;3168;51.684;6.954;2023-02-13T01:12:31;8.20;1.00
6270;DHT22;3168;51.684;6.954;2023-02-13T01:14:57;8.20;1.00
6270;DHT22;3168;51.684;6.954;2023-02-13T01:17:23;8.20;1.00
6270;DHT22;3168;51.684;6.954;2023-02-13T01:19:49;8.20;1.00
6270;DHT22;3168;51.684;6.954;2023-02-13T01:22:15;8.20;1.00
6270;DHT22;3168;51.684;6.954;2023-02-13T01:24:40;8.20;1.00
6270;DHT22;3168;51.684;6.954;2023-02-13T01:27:06;8.10;1.00
6270;DHT22;3168;51.684;6.954;2023-02-13T01:29:32;8.20;1.00
6270;DHT22;3168;51.684;6.954;2023-02-13T01:31:58;8.20;1.00
6270;DHT22;3168;51.684;6.954;2023-02-13T01:34:24;8.10;1.00
6270;DHT22;3168;51.684;6.954;2023-02-13T01:36:49;8.10;1.00
6270;DHT22;3168;51.684;6.954;2023-02-13T01:39:15;8.10;1.00
6270;DHT22;3168;51.684;6.954;2023-02-13T01:41:41;8.10;1.00
6270;DHT22;3168;51.684;6.954;2023-02-13T01:46:45;8.10;1.00
6270;DHT22;3168;51.684;6.954;2023-02-13T01:49:12;8.00;1.00
6270;DHT22;3168;51.684;6.954;2023-02-13T01:51:37;8.10;1.00
6270;DHT22;3168;51.684;6.954;2023-02-13T01:54:06;8.10;1.00
6270;DHT22;3168;51.684;6.954;2023-02-13T01:56:33;8.10;1.00
6270;DHT22;3168;51.684;6.954;2023-02-13T01:58:59;8.10;1.00
6270;DHT22;3168;51.684;6.954;2023-02-13T02:01:25;8.10;1.00
6270;DHT22;3168;51.684;6.954;2023-02-13T02:03:55;8.10;1.00
6270;DHT22;3168;51.684;6.954;2023-02-13T02:06:22;8.10;1.00
6270;DHT22;3168;51.684;6.954;2023-02-13T02:08:46;8.00;1.00
6270;DHT22;3168;51.684;6.954;2023-02-13T02:11:16;8.10;1.00
6270;DHT22;3168;51.684;6.954;2023-02-13T02:13:37;8.10;1.00
6270;DHT22;3168;51.684;6.954;2023-02-13T02:16:03;8.10;1.00
6270;DHT22;3168;51.684;6.954;2023-02-13T02:18:30;8.10;1.00
6270;DHT22;3168;51.684;6.954;2023-02-13T02:21:20;8.10;1.00
6270;DHT22;3168;51.684;6.954;2023-02-13T02:29:02;8.10;1.00
6270;DHT22;3168;51.684;6.954;2023-02-13T02:31:58;8.10;1.00
6270;DHT22;3168;51.684;6.954;2023-02-13T02:34:38;8.00;1.00
6270;DHT22;3168;51.684;6.954;2023-02-13T02:37:11;8.10;1.00
6270;DHT22;3168;51.684;6.954;2023-02-13T02:42:38;8.10;1.00
6270;DHT22;3168;51.684;6.954;2023-02-13T02:45:07;8.00;1.00
6270;DHT22;3168;51.684;6.954;2023-02-13T02:47:35;8.00;1.00
6270;DHT22;3168;51.684;6.954;2023-02-13T02:50:13;8.00;1.00
6270;DHT22;3168;51.684;6.954;2023-02-13T02:52:51;8.00;1.00
6270;DHT22;3168;51.684;6.954;2023-02-13T02:55:35;8.00;1.00
6270;DHT22;3168;51.684;6.954;2023-02-13T02:58:02;8.00;1.00
6270;DHT22;3168;51.684;6.954;2023-02-13T03:00:31;8.00;1.00
6270;DHT22;3168;51.684;6.954;2023-02-13T03:03:04;7.90;1.00
6270;DHT22;3168;51.684;6.954;2023-02-13T03:05:36;8.00;1.00
6270;DHT22;3168;51.684;6.954;2023-02-13T03:08:08;8.00;1.00
6270;DHT22;3168;51.684;6.954;2023-02-13T03:10:35;8.00;1.00
6270;DHT22;3168;51.684;6.954;2023-02-13T03:13:08;8.00;1.00
6270;DHT22;3168;51.684;6.954;2023-02-13T03:15:39;8.00;1.00
6270;DHT22;3168;51.684;6.954;2023-02-13T03:18:04;8.00;1.00
6270;DHT22;3168;51.684;6.954;2023-02-13T03:20:45;8.20;1.00
6270;DHT22;3168;51.684;6.954;2023-02-13T03:23:16;8.00;1.00
6270;DHT22;3168;51.684;6.954;2023-02-13T03:25:56;8.00;1.00
6270;DHT22;3168;51.684;6.954;2023-02-13T03:28:26;8.00;1.00
6270;DHT22;3168;51.684;6.954;2023-02-13T03:31:00;8.00;1.00
6270;DHT22;3168;51.684;6.954;2023-02-13T03:34:00;8.00;1.00
6270;DHT22;3168;51.684;6.954;2023-02-13T03:39:14;8.00;1.00
6270;DHT22;3168;51.684;6.954;2023-02-13T03:41:40;8.00;1.00
6270;DHT22;3168;51.684;6.954;2023-02-13T03:44:08;8.00;1.00
6270;DHT22;3168;51.684;6.954;2023-02-13T03:46:34;8.00;1.00
6270;DHT22;3168;51.684;6.954;2023-02-13T03:48:58;8.00;1.00
6270;DHT22;3168;51.684;6.954;2023-02-13T03:51:32;8.00;1.00
6270;DHT22;3168;51.684;6.954;2023-02-13T03:53:58;7.90;1.00
6270;DHT22;3168;51.684;6.954;2023-02-13T03:56:22;7.90;1.00
6270;DHT22;3168;51.684;6.954;2023-02-13T03:58:54;7.90;1.00
6270;DHT22;3168;51.684;6.954;2023-02-13T04:01:26;7.90;1.00
6270;DHT22;3168;51.684;6.954;2023-02-13T04:04:00;8.00;1.00
6270;DHT22;3168;51.684;6.954;2023-02-13T04:06:29;8.00;1.00
6270;DHT22;3168;51.684;6.954;2023-02-13T04:08:52;8.00;1.00
6270;DHT22;3168;51.684;6.954;2023-02-13T04:11:31;8.10;1.00
6270;DHT22;3168;51.684;6.954;2023-02-13T04:14:00;8.10;1.00
6270;DHT22;3168;51.684;6.954;2023-02-13T04:16:35;8.00;1.00
6270;DHT22;3168;51.684;6.954;2023-02-13T04:19:00;8.00;1.00
6270;DHT22;3168;51.684;6.954;2023-02-13T04:21:26;8.00;1.00
6270;DHT22;3168;51.684;6.954;2023-02-13T04:23:51;8.00;1.00
6270;DHT22;3168;51.684;6.954;2023-02-13T04:26:18;8.10;1.00
6270;DHT22;3168;51.684;6.954;2023-02-13T04:28:43;8.00;1.00
6270;DHT22;3168;51.684;6.954;2023-02-13T04:31:09;8.10;1.00
6270;DHT22;3168;51.684;6.954;2023-02-13T04:33:35;8.00;1.00
6270;DHT22;3168;51.684;6.954;2023-02-13T04:36:01;8.00;1.00
6270;DHT22;3168;51.684;6.954;2023-02-13T04:38:27;8.00;1.00
6270;DHT22;3168;51.684;6.954;2023-02-13T04:40:53;8.00;1.00
6270;DHT22;3168;51.684;6.954;2023-02-13T04:43:19;8.00;1.00
6270;DHT22;3168;51.684;6.954;2023-02-13T04:45:47;7.90;1.00
6270;DHT22;3168;51.684;6.954;2023-02-13T04:48:12;7.90;1.00
6270;DHT22;3168;51.684;6.954;2023-02-13T04:50:38;7.90;1.00
6270;DHT22;3168;51.684;6.954;2023-02-13T04:53:05;7.90;1.00
6270;DHT22;3168;51.684;6.954;2023-02-13T04:55:30;8.00;1.00
6270;DHT22;3168;51.684;6.954;2023-02-13T04:57:56;7.90;1.00
6270;DHT22;3168;51.684;6.954;2023-02-13T05:00:23;7.90;1.00
6270;DHT22;3168;51.684;6.954;2023-02-13T05:02:48;7.90;1.00
6270;DHT22;3168;51.684;6.954;2023-02-13T05:05:14;7.90;1.00
6270;DHT22;3168;51.684;6.954;2023-02-13T05:07:40;7.90;1.00
6270;DHT22;3168;51.684;6.954;2023-02-13T05:10:08;7.90;1.00
6270;DHT22;3168;51.684;6.954;2023-02-13T05:12:33;7.90;1.00
6270;DHT22;3168;51.684;6.954;2023-02-13T05:14:59;7.90;1.00
6270;DHT22;3168;51.684;6.954;2023-02-13T05:17:25;7.80;1.00
6270;DHT22;3168;51.684;6.954;2023-02-13T05:19:51;7.70;1.00
6270;DHT22;3168;51.684;6.954;2023-02-13T05:22:17;7.70;1.00
6270;DHT22;3168;51.684;6.954;2023-02-13T05:24:49;7.70;1.00
6270;DHT22;3168;51.684;6.954;2023-02-13T05:27:15;7.70;1.00
6270;DHT22;3168;51.684;6.954;2023-02-13T05:29:41;7.70;1.00
6270;DHT22;3168;51.684;6.954;2023-02-13T05:32:06;7.70;1.00
6270;DHT22;3168;51.684;6.954;2023-02-13T05:34:32;7.60;1.00
6270;DHT22;3168;51.684;6.954;2023-02-13T05:36:58;7.50;1.00
6270;DHT22;3168;51.684;6.954;2023-02-13T05:39:24;7.50;1.00
6270;DHT22;3168;51.684;6.954;2023-02-13T05:41:49;7.40;1.00
6270;DHT22;3168;51.684;6.954;2023-02-13T05:44:15;7.50;1.00
6270;DHT22;3168;51.684;6.954;2023-02-13T05:46:43;7.50;1.00
6270;DHT22;3168;51.684;6.954;2023-02-13T05:49:08;7.40;1.00
6270;DHT22;3168;51.684;6.954;2023-02-13T05:51:33;7.40;1.00
6270;DHT22;3168;51.684;6.954;2023-02-13T05:53:59;7.40;1.00
6270;DHT22;3168;51.684;6.954;2023-02-13T05:56:25;7.30;1.00
6270;DHT22;3168;51.684;6.954;2023-02-13T05:58:52;7.30;1.00
6270;DHT22;3168;51.684;6.954;2023-02-13T06:01:17;7.30;1.00
6270;DHT22;3168;51.684;6.954;2023-02-13T06:03:43;7.30;1.00
6270;DHT22;3168;51.684;6.954;2023-02-13T06:06:09;7.30;1.00
6270;DHT22;3168;51.684;6.954;2023-02-13T06:08:35;7.30;1.00
6270;DHT22;3168;51.684;6.954;2023-02-13T06:11:01;7.30;1.00
6270;DHT22;3168;51.684;6.954;2023-02-13T06:13:26;7.40;1.00
6270;DHT22;3168;51.684;6.954;2023-02-13T06:15:52;7.40;1.00
6270;DHT22;3168;51.684;6.954;2023-02-13T06:18:18;7.40;1.00
6270;DHT22;3168;51.684;6.954;2023-02-13T06:20:44;7.40;1.00
6270;DHT22;3168;51.684;6.954;2023-02-13T06:23:10;7.40;1.00
6270;DHT22;3168;51.684;6.954;2023-02-13T06:25:36;7.50;1.00
6270;DHT22;3168;51.684;6.954;2023-02-13T06:28:02;7.50;1.00
6270;DHT22;3168;51.684;6.954;2023-02-13T06:30:28;7.50;1.00
6270;DHT22;3168;51.684;6.954;2023-02-13T06:32:54;7.50;1.00
6270;DHT22;3168;51.684;6.954;2023-02-13T06:35:19;7.50;1.00
6270;DHT22;3168;51.684;6.954;2023-02-13T06:37:45;7.50;1.00
6270;DHT22;3168;51.684;6.954;2023-02-13T06:40:12;7.50;1.00
6270;DHT22;3168;51.684;6.954;2023-02-13T06:42:38;7.50;1.00
6270;DHT22;3168;51.684;6.954;2023-02-13T06:45:05;7.50;1.00
6270;DHT22;3168;51.684;6.954;2023-02-13T06:47:31;7.50;1.00
6270;DHT22;3168;51.684;6.954;2023-02-13T06:49:57;7.60;1.00
6270;DHT22;3168;51.684;6.954;2023-02-13T06:52:22;7.60;1.00
6270;DHT22;3168;51.684;6.954;2023-02-13T06:54:48;7.60;1.00
6270;DHT22;3168;51.684;6.954;2023-02-13T06:57:14;7.50;1.00
6270;DHT22;3168;51.684;6.954;2023-02-13T06:59:40;7.50;1.00
6270;DHT22;3168;51.684;6.954;2023-02-13T07:02:07;7.50;1.00
6270;DHT22;3168;51.684;6.954;2023-02-13T07:04:32;7.50;1.00
6270;DHT22;3168;51.684;6.954;2023-02-13T07:06:57;7.50;1.00
6270;DHT22;3168;51.684;6.954;2023-02-13T07:09:23;7.50;1.00
6270;DHT22;3168;51.684;6.954;2023-02-13T07:11:49;7.50;1.00
6270;DHT22;3168;51.684;6.954;2023-02-13T07:14:15;7.40;1.00
6270;DHT22;3168;51.684;6.954;2023-02-13T07:16:40;7.40;1.00
6270;DHT22;3168;51.684;6.954;2023-02-13T07:19:07;7.30;1.00
6270;DHT22;3168;51.684;6.954;2023-02-13T07:21:33;7.30;1.00
6270;DHT22;3168;51.684;6.954;2023-02-13T07:23:59;7.30;1.00
6270;DHT22;3168;51.684;6.954;2023-02-13T07:26:25;7.40;1.00
6270;DHT22;3168;51.684;6.954;2023-02-13T07:28:51;7.40;1.00
6270;DHT22;3168;51.684;6.954;2023-02-13T07:31:17;7.30;1.00
6270;DHT22;3168;51.684;6.954;2023-02-13T07:33:43;7.30;1.00
6270;DHT22;3168;51.684;6.954;2023-02-13T07:36:09;7.30;1.00
6270;DHT22;3168;51.684;6.954;2023-02-13T07:38:35;7.20;1.00
6270;DHT22;3168;51.684;6.954;2023-02-13T07:41:01;7.20;1.00
6270;DHT22;3168;51.684;6.954;2023-02-13T07:43:27;7.30;1.00
6270;DHT22;3168;51.684;6.954;2023-02-13T07:45:53;7.30;1.00
6270;DHT22;3168;51.684;6.954;2023-02-13T07:48:22;7.30;1.00
6270;DHT22;3168;51.684;6.954;2023-02-13T07:50:47;7.30;1.00
6270;DHT22;3168;51.684;6.954;2023-02-13T07:53:13;7.20;1.00
6270;DHT22;3168;51.684;6.954;2023-02-13T07:55:39;7.20;1.00
6270;DHT22;3168;51.684;6.954;2023-02-13T07:58:05;7.20;1.00
6270;DHT22;3168;51.684;6.954;2023-02-13T08:00:30;7.20;1.00
6270;DHT22;3168;51.684;6.954;2023-02-13T08:02:58;7.10;1.00
6270;DHT22;3168;51.684;6.954;2023-02-13T08:05:23;7.10;1.00
6270;DHT22;3168;51.684;6.954;2023-02-13T08:07:48;7.20;1.00
6270;DHT22;3168;51.684;6.954;2023-02-13T08:10:14;7.20;1.00
6270;DHT22;3168;51.684;6.954;2023-02-13T08:12:46;7.30;1.00
6270;DHT22;3168;51.684;6.954;2023-02-13T08:15:13;7.30;1.00
6270;DHT22;3168;51.684;6.954;2023-02-13T08:17:38;7.40;1.00
6270;DHT22;3168;51.684;6.954;2023-02-13T08:20:05;7.40;1.00
6270;DHT22;3168;51.684;6.954;2023-02-13T08:22:34;7.50;1.00
6270;DHT22;3168;51.684;6.954;2023-02-13T08:24:59;7.50;1.00
6270;DHT22;3168;51.684;6.954;2023-02-13T08:27:25;7.50;1.00
6270;DHT22;3168;51.684;6.954;2023-02-13T08:29:52;7.60;1.00
6270;DHT22;3168;51.684;6.954;2023-02-13T08:32:18;7.60;1.00
6270;DHT22;3168;51.684;6.954;2023-02-13T08:34:44;7.60;1.00
6270;DHT22;3168;51.684;6.954;2023-02-13T08:37:10;7.70;1.00
6270;DHT22;3168;51.684;6.954;2023-02-13T08:39:37;7.70;1.00
6270;DHT22;3168;51.684;6.954;2023-02-13T08:42:03;7.60;1.00
6270;DHT22;3168;51.684;6.954;2023-02-13T08:44:28;7.70;1.00
6270;DHT22;3168;51.684;6.954;2023-02-13T08:46:54;7.80;1.00
6270;DHT22;3168;51.684;6.954;2023-02-13T08:49:20;7.80;1.00
6270;DHT22;3168;51.684;6.954;2023-02-13T08:51:46;7.80;1.00
6270;DHT22;3168;51.684;6.954;2023-02-13T08:54:12;7.90;1.00
6270;DHT22;3168;51.684;6.954;2023-02-13T08:56:38;7.90;1.00
6270;DHT22;3168;51.684;6.954;2023-02-13T08:59:03;7.90;1.00
6270;DHT22;3168;51.684;6.954;2023-02-13T09:01:33;8.00;1.00
6270;DHT22;3168;51.684;6.954;2023-02-13T09:03:59;8.00;1.00
6270;DHT22;3168;51.684;6.954;2023-02-13T09:06:25;8.10;1.00
6270;DHT22;3168;51.684;6.954;2023-02-13T09:08:51;8.10;1.00
6270;DHT22;3168;51.684;6.954;2023-02-13T09:11:16;8.20;1.00
6270;DHT22;3168;51.684;6.954;2023-02-13T09:13:42;8.40;1.00
6270;DHT22;3168;51.684;6.954;2023-02-13T09:16:09;8.30;1.00
6270;DHT22;3168;51.684;6.954;2023-02-13T09:18:34;8.30;1.00
6270;DHT22;3168;51.684;6.954;2023-02-13T09:21:01;8.30;1.00
6270;DHT22;3168;51.684;6.954;2023-02-13T09:23:26;8.40;1.00
6270;DHT22;3168;51.684;6.954;2023-02-13T09:25:52;8.40;1.00
6270;DHT22;3168;51.684;6.954;2023-02-13T09:28:17;8.50;1.00
6270;DHT22;3168;51.684;6.954;2023-02-13T09:30:43;8.60;1.00
6270;DHT22;3168;51.684;6.954;2023-02-13T09:33:09;8.70;1.00
6270;DHT22;3168;51.684;6.954;2023-02-13T09:35:35;8.40;1.00
6270;DHT22;3168;51.684;6.954;2023-02-13T09:38:01;8.70;1.00
6270;DHT22;3168;51.684;6.954;2023-02-13T09:40:34;8.70;1.00
6270;DHT22;3168;51.684;6.954;2023-02-13T09:43:14;8.70;1.00
6270;DHT22;3168;51.684;6.954;2023-02-13T09:45:38;8.80;1.00
6270;DHT22;3168;51.684;6.954;2023-02-13T09:48:04;8.80;1.00
6270;DHT22;3168;51.684;6.954;2023-02-13T09:50:30;8.90;1.00
6270;DHT22;3168;51.684;6.954;2023-02-13T09:52:57;9.10;1.00
6270;DHT22;3168;51.684;6.954;2023-02-13T09:55:28;9.00;1.00
6270;DHT22;3168;51.684;6.954;2023-02-13T09:58:09;9.20;1.00
6270;DHT22;3168;51.684;6.954;2023-02-13T10:00:41;9.20;1.00
6270;DHT22;3168;51.684;6.954;2023-02-13T10:03:22;9.10;1.00
6270;DHT22;3168;51.684;6.954;2023-02-13T10:06:35;9.10;1.00
6270;DHT22;3168;51.684;6.954;2023-02-13T10:09:05;9.30;1.00
6270;DHT22;3168;51.684;6.954;2023-02-13T10:11:44;9.40;1.00
6270;DHT22;3168;51.684;6.954;2023-02-13T10:16:45;9.50;1.00
6270;DHT22;3168;51.684;6.954;2023-02-13T10:19:47;9.60;1.00
6270;DHT22;3168;51.684;6.954;2023-02-13T10:22:17;9.60;1.00
6270;DHT22;3168;51.684;6.954;2023-02-13T10:24:46;9.60;1.00
6270;DHT22;3168;51.684;6.954;2023-02-13T10:27:15;9.70;1.00
6270;DHT22;3168;51.684;6.954;2023-02-13T10:29:41;9.70;1.00
6270;DHT22;3168;51.684;6.954;2023-02-13T10:32:10;9.60;1.00
6270;DHT22;3168;51.684;6.954;2023-02-13T10:34:38;9.80;1.00
6270;DHT22;3168;51.684;6.954;2023-02-13T10:37:02;9.90;1.00
6270;DHT22;3168;51.684;6.954;2023-02-13T10:39:29;10.00;1.00
6270;DHT22;3168;51.684;6.954;2023-02-13T10:41:56;10.00;1.00
6270;DHT22;3168;51.684;6.954;2023-02-13T10:44:32;10.00;1.00
6270;DHT22;3168;51.684;6.954;2023-02-13T10:47:11;10.00;1.00
6270;DHT22;3168;51.684;6.954;2023-02-13T10:50:02;10.10;1.00
6270;DHT22;3168;51.684;6.954;2023-02-13T10:52:39;10.20;1.00
6270;DHT22;3168;51.684;6.954;2023-02-13T10:55:09;10.10;1.00
6270;DHT22;3168;51.684;6.954;2023-02-13T10:57:39;10.20;1.00
6270;DHT22;3168;51.684;6.954;2023-02-13T11:00:09;10.40;1.00
6270;DHT22;3168;51.684;6.954;2023-02-13T11:02:33;10.40;1.00
6270;DHT22;3168;51.684;6.954;2023-02-13T11:05:01;10.50;1.00
6270;DHT22;3168;51.684;6.954;2023-02-13T11:07:25;10.50;1.00
6270;DHT22;3168;51.684;6.954;2023-02-13T11:09:52;10.40;1.00
6270;DHT22;3168;51.684;6.954;2023-02-13T11:12:27;10.50;1.00
6270;DHT22;3168;51.684;6.954;2023-02-13T11:14:53;10.40;1.00
6270;DHT22;3168;51.684;6.954;2023-02-13T11:17:18;10.60;1.00
6270;DHT22;3168;51.684;6.954;2023-02-13T11:19:47;10.60;1.00
6270;DHT22;3168;51.684;6.954;2023-02-13T11:22:13;10.50;1.00
6270;DHT22;3168;51.684;6.954;2023-02-13T11:24:39;10.50;1.00
6270;DHT22;3168;51.684;6.954;2023-02-13T11:27:06;10.60;1.00
6270;DHT22;3168;51.684;6.954;2023-02-13T11:29:32;10.60;1.00
6270;DHT22;3168;51.684;6.954;2023-02-13T11:32:00;10.80;1.00
6270;DHT22;3168;51.684;6.954;2023-02-13T11:34:26;10.80;1.00
6270;DHT22;3168;51.684;6.954;2023-02-13T11:36:52;10.90;1.00
6270;DHT22;3168;51.684;6.954;2023-02-13T11:39:18;10.90;1.00
6270;DHT22;3168;51.684;6.954;2023-02-13T11:41:44;10.90;1.00
6270;DHT22;3168;51.684;6.954;2023-02-13T11:44:32;10.90;1.00
6270;DHT22;3168;51.684;6.954;2023-02-13T11:46:58;10.90;1.00
6270;DHT22;3168;51.684;6.954;2023-02-13T11:49:26;11.10;1.00
6270;DHT22;3168;51.684;6.954;2023-02-13T11:51:53;11.10;1.00
6270;DHT22;3168;51.684;6.954;2023-02-13T11:54:34;11.20;1.00
6270;DHT22;3168;51.684;6.954;2023-02-13T11:57:00;11.20;1.00
6270;DHT22;3168;51.684;6.954;2023-02-13T11:59:26;11.20;1.00
6270;DHT22;3168;51.684;6.954;2023-02-13T12:02:00;11.20;1.00
6270;DHT22;3168;51.684;6.954;2023-02-13T12:04:25;11.20;1.00
6270;DHT22;3168;51.684;6.954;2023-02-13T12:06:59;11.30;1.00
6270;DHT22;3168;51.684;6.954;2023-02-13T12:09:25;11.30;1.00
6270;DHT22;3168;51.684;6.954;2023-02-13T12:11:51;11.30;1.00
6270;DHT22;3168;51.684;6.954;2023-02-13T12:14:20;11.40;1.00
6270;DHT22;3168;51.684;6.954;2023-02-13T12:16:47;11.40;1.00
6270;DHT22;3168;51.684;6.954;2023-02-13T12:19:13;11.40;1.00
6270;DHT22;3168;51.684;6.954;2023-02-13T12:22:05;11.40;1.00
6270;DHT22;3168;51.684;6.954;2023-02-13T12:24:44;11.40;1.00
6270;DHT22;3168;51.684;6.954;2023-02-13T12:27:18;11.50;1.00
6270;DHT22;3168;51.684;6.954;2023-02-13T12:29:54;11.30;1.00
6270;DHT22;3168;51.684;6.954;2023-02-13T12:32:18;11.50;1.00
6270;DHT22;3168;51.684;6.954;2023-02-13T12:34:53;11.50;1.00
6270;DHT22;3168;51.684;6.954;2023-02-13T12:45:35;11.60;1.00
6270;DHT22;3168;51.684;6.954;2023-02-13T12:48:03;11.60;1.00
6270;DHT22;3168;51.684;6.954;2023-02-13T12:50:28;11.60;1.00
6270;DHT22;3168;51.684;6.954;2023-02-13T12:53:15;11.70;1.00
6270;DHT22;3168;51.684;6.954;2023-02-13T13:01:38;11.80;1.00
6270;DHT22;3168;51.684;6.954;2023-02-13T13:04:16;11.90;1.00
6270;DHT22;3168;51.684;6.954;2023-02-13T13:09:34;11.90;1.00
6270;DHT22;3168;51.684;6.954;2023-02-13T13:12:15;11.90;1.00
6270;DHT22;3168;51.684;6.954;2023-02-13T13:15:07;12.00;1.00
6270;DHT22;3168;51.684;6.954;2023-02-13T13:20:50;11.90;1.00
6270;DHT22;3168;51.684;6.954;2023-02-13T13:23:17;11.90;1.00
6270;DHT22;3168;51.684;6.954;2023-02-13T13:25:51;12.00;1.00
6270;DHT22;3168;51.684;6.954;2023-02-13T13:28:16;12.00;1.00
6270;DHT22;3168;51.684;6.954;2023-02-13T13:30:40;12.00;1.00
6270;DHT22;3168;51.684;6.954;2023-02-13T13:33:22;11.90;1.00
6270;DHT22;3168;51.684;6.954;2023-02-13T13:36:07;11.90;1.00
6270;DHT22;3168;51.684;6.954;2023-02-13T13:38:45;12.00;1.00
6270;DHT22;3168;51.684;6.954;2023-02-13T13:41:14;11.90;1.00
6270;DHT22;3168;51.684;6.954;2023-02-13T13:43:47;11.90;1.00
6270;DHT22;3168;51.684;6.954;2023-02-13T13:46:07;11.90;1.00
6270;DHT22;3168;51.684;6.954;2023-02-13T13:49:09;11.90;1.00
6270;DHT22;3168;51.684;6.954;2023-02-13T13:51:15;12.00;1.00
6270;DHT22;3168;51.684;6.954;2023-02-13T13:56:18;12.00;1.00
6270;DHT22;3168;51.684;6.954;2023-02-13T13:58:45;12.00;1.00
6270;DHT22;3168;51.684;6.954;2023-02-13T14:01:17;12.10;1.00
6270;DHT22;3168;51.684;6.954;2023-02-13T14:03:43;12.00;1.00
6270;DHT22;3168;51.684;6.954;2023-02-13T14:06:09;12.10;1.00
6270;DHT22;3168;51.684;6.954;2023-02-13T14:08:54;12.10;1.00
6270;DHT22;3168;51.684;6.954;2023-02-13T14:11:27;12.10;1.00
6270;DHT22;3168;51.684;6.954;2023-02-13T14:13:51;12.10;1.00
6270;DHT22;3168;51.684;6.954;2023-02-13T14:16:39;12.20;1.00
6270;DHT22;3168;51.684;6.954;2023-02-13T14:19:04;12.20;1.00
6270;DHT22;3168;51.684;6.954;2023-02-13T14:21:30;12.10;1.00
6270;DHT22;3168;51.684;6.954;2023-02-13T14:23:56;12.20;1.00
6270;DHT22;3168;51.684;6.954;2023-02-13T14:26:29;12.20;1.00
6270;DHT22;3168;51.684;6.954;2023-02-13T14:28:55;12.10;1.00
6270;DHT22;3168;51.684;6.954;2023-02-13T14:31:25;12.10;1.00
6270;DHT22;3168;51.684;6.954;2023-02-13T14:37:01;12.10;1.00
6270;DHT22;3168;51.684;6.954;2023-02-13T14:39:20;12.20;1.00
6270;DHT22;3168;51.684;6.954;2023-02-13T14:44:31;12.20;1.00
6270;DHT22;3168;51.684;6.954;2023-02-13T14:46:56;12.20;1.00
6270;DHT22;3168;51.684;6.954;2023-02-13T14:49:24;12.20;1.00
6270;DHT22;3168;51.684;6.954;2023-02-13T14:51:51;12.20;1.00
6270;DHT22;3168;51.684;6.954;2023-02-13T14:54:32;12.30;1.00
6270;DHT22;3168;51.684;6.954;2023-02-13T14:57:37;12.20;1.00
6270;DHT22;3168;51.684;6.954;2023-02-13T14:59:47;12.30;1.00
6270;DHT22;3168;51.684;6.954;2023-02-13T15:02:18;12.30;1.00
6270;DHT22;3168;51.684;6.954;2023-02-13T15:04:43;12.10;1.00
6270;DHT22;3168;51.684;6.954;2023-02-13T15:07:13;12.30;1.00
6270;DHT22;3168;51.684;6.954;2023-02-13T15:09:38;12.30;1.00
6270;DHT22;3168;51.684;6.954;2023-02-13T15:12:21;12.30;1.00
6270;DHT22;3168;51.684;6.954;2023-02-13T15:14:30;12.30;1.00
6270;DHT22;3168;51.684;6.954;2023-02-13T15:16:58;12.20;1.00
6270;DHT22;3168;51.684;6.954;2023-02-13T15:19:22;12.20;1.00
6270;DHT22;3168;51.684;6.954;2023-02-13T15:21:59;12.20;1.00
6270;DHT22;3168;51.684;6.954;2023-02-13T15:24:24;12.10;1.00
6270;DHT22;3168;51.684;6.954;2023-02-13T15:26:52;12.00;1.00
6270;DHT22;3168;51.684;6.954;2023-02-13T15:29:18;12.00;1.00
6270;DHT22;3168;51.684;6.954;2023-02-13T15:31:43;12.00;1.00
6270;DHT22;3168;51.684;6.954;2023-02-13T15:34:27;12.00;1.00
6270;DHT22;3168;51.684;6.954;2023-02-13T15:36:54;11.90;1.00
6270;DHT22;3168;51.684;6.954;2023-02-13T15:39:23;11.90;1.00
6270;DHT22;3168;51.684;6.954;2023-02-13T15:41:48;11.90;1.00
6270;DHT22;3168;51.684;6.954;2023-02-13T15:44:15;12.00;1.00
6270;DHT22;3168;51.684;6.954;2023-02-13T15:46:40;12.10;1.00
6270;DHT22;3168;51.684;6.954;2023-02-13T15:49:08;11.90;1.00
6270;DHT22;3168;51.684;6.954;2023-02-13T15:51:33;12.00;1.00
6270;DHT22;3168;51.684;6.954;2023-02-13T15:54:01;12.00;1.00
6270;DHT22;3168;51.684;6.954;2023-02-13T15:56:26;11.90;1.00
6270;DHT22;3168;51.684;6.954;2023-02-13T15:58:52;11.80;1.00
6270;DHT22;3168;51.684;6.954;2023-02-13T16:01:18;11.60;1.00
6270;DHT22;3168;51.684;6.954;2023-02-13T16:03:44;11.50;1.00
6270;DHT22;3168;51.684;6.954;2023-02-13T16:06:13;11.50;1.00
6270;DHT22;3168;51.684;6.954;2023-02-13T16:08:38;11.50;1.00
6270;DHT22;3168;51.684;6.954;2023-02-13T16:11:16;11.40;1.00
6270;DHT22;3168;51.684;6.954;2023-02-13T16:13:38;11.30;1.00
6270;DHT22;3168;51.684;6.954;2023-02-13T16:16:07;11.20;1.00
6270;DHT22;3168;51.684;6.954;2023-02-13T16:18:33;11.00;1.00
6270;DHT22;3168;51.684;6.954;2023-02-13T16:20:58;11.00;1.00
6270;DHT22;3168;51.684;6.954;2023-02-13T16:23:24;10.80;1.00
6270;DHT22;3168;51.684;6.954;2023-02-13T16:25:50;10.80;1.00
6270;DHT22;3168;51.684;6.954;2023-02-13T16:28:20;10.60;1.00
6270;DHT22;3168;51.684;6.954;2023-02-13T16:30:45;10.60;1.00
6270;DHT22;3168;51.684;6.954;2023-02-13T16:33:26;10.50;1.00
6270;DHT22;3168;51.684;6.954;2023-02-13T16:35:51;10.50;1.00
6270;DHT22;3168;51.684;6.954;2023-02-13T16:38:28;10.40;1.00
6270;DHT22;3168;51.684;6.954;2023-02-13T16:40:52;10.30;1.00
6270;DHT22;3168;51.684;6.954;2023-02-13T16:46:08;10.20;1.00
6270;DHT22;3168;51.684;6.954;2023-02-13T16:48:22;10.10;1.00
6270;DHT22;3168;51.684;6.954;2023-02-13T16:50:53;10.10;1.00
6270;DHT22;3168;51.684;6.954;2023-02-13T16:53:13;10.10;1.00
6270;DHT22;3168;51.684;6.954;2023-02-13T16:55:40;9.90;1.00
6270;DHT22;3168;51.684;6.954;2023-02-13T16:58:05;9.90;1.00
6270;DHT22;3168;51.684;6.954;2023-02-13T17:00:31;9.90;1.00
6270;DHT22;3168;51.684;6.954;2023-02-13T17:02:57;9.80;1.00
6270;DHT22;3168;51.684;6.954;2023-02-13T17:05:24;9.70;1.00
6270;DHT22;3168;51.684;6.954;2023-02-13T17:07:50;9.60;1.00
6270;DHT22;3168;51.684;6.954;2023-02-13T17:10:22;9.50;1.00
6270;DHT22;3168;51.684;6.954;2023-02-13T17:12:46;9.40;1.00
6270;DHT22;3168;51.684;6.954;2023-02-13T17:15:13;9.30;1.00
6270;DHT22;3168;51.684;6.954;2023-02-13T17:17:38;9.40;1.00
6270;DHT22;3168;51.684;6.954;2023-02-13T17:20:05;9.30;1.00
6270;DHT22;3168;51.684;6.954;2023-02-13T17:22:33;9.30;1.00
6270;DHT22;3168;51.684;6.954;2023-02-13T17:24:58;9.20;1.00